Time;durP1;ratioP1;P1;durP2;ratioP2;P2;SDS_P1;SDS_P2;PMS_P1;PMS_P2;Temp;Humidity;BMP_temperature;BMP_pressure;BME280_temperature;BME280_humidity;BME280_pressure;Samples;Min_cycle;Max_cycle;Signal;HPM_P1;HPM_P2
2021/01/12 00:00:54;;;;;;;27.85;17.05;;;;;;;-7.12;77.6709;95346.88;;;;
2021/01/12 00:01:54;;;;;;;27.85;17.05;;;;;;;-7.12;77.6709;95346.88;;;;
2021/01/12 00:02:54;;;;;;;27.85;17.05;;;;;;;-7.12;77.6709;95346.88;;;;
2021/01/12 00:03:56;;;;;;;27.85;17.05;;;;;;;-7.12;77.6709;95346.88;;;;
2021/01/12 00:04:57;;;;;;;27.85;17.05;;;;;;;-7.12;77.6709;95346.88;;;;
2021/01/12 00:05:57;;;;;;;27.85;17.05;;;;;;;-7.12;77.6709;95346.88;;;;
2021/01/12 00:06:58;;;;;;;27.85;17.05;;;;;;;-7.12;77.6709;95346.88;;;;
2021/01/12 00:07:58;;;;;;;27.85;17.05;;;;;;;-7.12;77.6709;95346.88;;;;
2021/01/12 00:08:59;;;;;;;27.85;17.05;;;;;;;-7.12;77.6709;95346.88;;;;
2021/01/12 00:09:59;;;;;;;27.85;17.05;;;;;;;-7.12;77.6709;95346.88;;;;
2021/01/12 00:11:00;;;;;;;27.85;17.05;;;;;;;-7.12;77.6709;95346.88;;;;
2021/01/12 00:12:01;;;;;;;30.6;18.95;;;;;;;-7.22;78.27832;95324.98;;;;
2021/01/12 00:13:01;;;;;;;30.6;18.95;;;;;;;-7.22;78.27832;95324.98;;;;
2021/01/12 00:14:02;;;;;;;30.6;18.95;;;;;;;-7.22;78.27832;95324.98;;;;
2021/01/12 00:15:02;;;;;;;30.6;18.95;;;;;;;-7.22;78.27832;95324.98;;;;
2021/01/12 00:16:04;;;;;;;30.6;18.95;;;;;;;-7.22;78.27832;95324.98;;;;
2021/01/12 00:17:05;;;;;;;30.6;18.95;;;;;;;-7.22;78.27832;95324.98;;;;
2021/01/12 00:18:07;;;;;;;30.6;18.95;;;;;;;-7.22;78.27832;95324.98;;;;
2021/01/12 00:19:08;;;;;;;30.6;18.95;;;;;;;-7.22;78.27832;95324.98;;;;
2021/01/12 00:20:08;;;;;;;30.6;18.95;;;;;;;-7.22;78.27832;95324.98;;;;
2021/01/12 00:21:11;;;;;;;30.6;18.95;;;;;;;-7.22;78.27832;95324.98;;;;
2021/01/12 00:22:14;;;;;;;29.6;18.6;;;;;;;-7.21;78.37402;95314.78;;;;
2021/01/12 00:23:14;;;;;;;29.6;18.6;;;;;;;-7.21;78.37402;95314.78;;;;
2021/01/12 00:24:15;;;;;;;29.6;18.6;;;;;;;-7.21;78.37402;95314.78;;;;
2021/01/12 00:25:15;;;;;;;29.6;18.6;;;;;;;-7.21;78.37402;95314.78;;;;
2021/01/12 00:26:16;;;;;;;29.6;18.6;;;;;;;-7.21;78.37402;95314.78;;;;
2021/01/12 00:27:16;;;;;;;29.6;18.6;;;;;;;-7.21;78.37402;95314.78;;;;
2021/01/12 00:28:20;;;;;;;29.6;18.6;;;;;;;-7.21;78.37402;95314.78;;;;
2021/01/12 00:29:20;;;;;;;29.6;18.6;;;;;;;-7.21;78.37402;95314.78;;;;
2021/01/12 00:30:21;;;;;;;29.6;18.6;;;;;;;-7.21;78.37402;95314.78;;;;
2021/01/12 00:31:22;;;;;;;29.6;18.6;;;;;;;-7.21;78.37402;95314.78;;;;
2021/01/12 00:32:22;;;;;;;29.6;18.6;;;;;;;-7.21;78.37402;95314.78;;;;
2021/01/12 00:33:25;;;;;;;30.45;19.15;;;;;;;-7.1;78.83203;95278.47;;;;
2021/01/12 00:34:26;;;;;;;30.45;19.15;;;;;;;-7.1;78.83203;95278.47;;;;
2021/01/12 00:35:26;;;;;;;30.45;19.15;;;;;;;-7.1;78.83203;95278.47;;;;
2021/01/12 00:36:27;;;;;;;30.45;19.15;;;;;;;-7.1;78.83203;95278.47;;;;
2021/01/12 00:37:28;;;;;;;30.45;19.15;;;;;;;-7.1;78.83203;95278.47;;;;
2021/01/12 00:38:28;;;;;;;30.45;19.15;;;;;;;-7.1;78.83203;95278.47;;;;
2021/01/12 00:39:30;;;;;;;30.45;19.15;;;;;;;-7.1;78.83203;95278.47;;;;
2021/01/12 00:40:30;;;;;;;30.45;19.15;;;;;;;-7.1;78.83203;95278.47;;;;
2021/01/12 00:41:31;;;;;;;30.45;19.15;;;;;;;-7.1;78.83203;95278.47;;;;
2021/01/12 00:42:32;;;;;;;30.45;19.15;;;;;;;-7.1;78.83203;95278.47;;;;
2021/01/12 00:43:32;;;;;;;28.35;18.3;;;;;;;-6.8;78.92969;95299.97;;;;
2021/01/12 00:44:33;;;;;;;28.35;18.3;;;;;;;-6.8;78.92969;95299.97;;;;
2021/01/12 00:45:33;;;;;;;28.35;18.3;;;;;;;-6.8;78.92969;95299.97;;;;
2021/01/12 00:46:34;;;;;;;28.35;18.3;;;;;;;-6.8;78.92969;95299.97;;;;
2021/01/12 00:47:34;;;;;;;28.35;18.3;;;;;;;-6.8;78.92969;95299.97;;;;
2021/01/12 00:48:35;;;;;;;28.35;18.3;;;;;;;-6.8;78.92969;95299.97;;;;
2021/01/12 00:49:36;;;;;;;28.35;18.3;;;;;;;-6.8;78.92969;95299.97;;;;
2021/01/12 00:50:36;;;;;;;28.35;18.3;;;;;;;-6.8;78.92969;95299.97;;;;
2021/01/12 00:51:37;;;;;;;28.35;18.3;;;;;;;-6.8;78.92969;95299.97;;;;
2021/01/12 00:52:39;;;;;;;28.35;18.3;;;;;;;-6.8;78.92969;95299.97;;;;
2021/01/12 00:53:39;;;;;;;28.35;18.3;;;;;;;-6.8;78.92969;95299.97;;;;
2021/01/12 00:54:39;;;;;;;28.3;17.7;;;;;;;-6.44;79.01758;95318.23;;;;
2021/01/12 00:55:40;;;;;;;28.3;17.7;;;;;;;-6.44;79.01758;95318.23;;;;
2021/01/12 00:56:40;;;;;;;28.3;17.7;;;;;;;-6.44;79.01758;95318.23;;;;
2021/01/12 00:57:41;;;;;;;28.3;17.7;;;;;;;-6.44;79.01758;95318.23;;;;
2021/01/12 00:58:42;;;;;;;28.3;17.7;;;;;;;-6.44;79.01758;95318.23;;;;
2021/01/12 00:59:45;;;;;;;28.3;17.7;;;;;;;-6.44;79.01758;95318.23;;;;
2021/01/12 01:00:46;;;;;;;28.3;17.7;;;;;;;-6.44;79.01758;95318.23;;;;
2021/01/12 01:01:46;;;;;;;28.3;17.7;;;;;;;-6.44;79.01758;95318.23;;;;
2021/01/12 01:02:48;;;;;;;28.3;17.7;;;;;;;-6.44;79.01758;95318.23;;;;
2021/01/12 01:03:48;;;;;;;28.3;17.7;;;;;;;-6.44;79.01758;95318.23;;;;
2021/01/12 01:04:49;;;;;;;26.25;13.25;;;;;;;-6.16;79.00098;95302.12;;;;
2021/01/12 01:05:49;;;;;;;26.25;13.25;;;;;;;-6.16;79.00098;95302.12;;;;
2021/01/12 01:06:50;;;;;;;26.25;13.25;;;;;;;-6.16;79.00098;95302.12;;;;
2021/01/12 01:07:50;;;;;;;26.25;13.25;;;;;;;-6.16;79.00098;95302.12;;;;
2021/01/12 01:08:51;;;;;;;26.25;13.25;;;;;;;-6.16;79.00098;95302.12;;;;
2021/01/12 01:09:52;;;;;;;26.25;13.25;;;;;;;-6.16;79.00098;95302.12;;;;
2021/01/12 01:10:52;;;;;;;26.25;13.25;;;;;;;-6.16;79.00098;95302.12;;;;
2021/01/12 01:11:53;;;;;;;26.25;13.25;;;;;;;-6.16;79.00098;95302.12;;;;
2021/01/12 01:12:53;;;;;;;26.25;13.25;;;;;;;-6.16;79.00098;95302.12;;;;
2021/01/12 01:13:54;;;;;;;26.25;13.25;;;;;;;-6.16;79.00098;95302.12;;;;
2021/01/12 01:14:56;;;;;;;26.25;13.25;;;;;;;-6.16;79.00098;95302.12;;;;
2021/01/12 01:15:57;;;;;;;22.15;12.25;;;;;;;-5.9;78.70996;95288;;;;
2021/01/12 01:16:57;;;;;;;22.15;12.25;;;;;;;-5.9;78.70996;95288;;;;
2021/01/12 01:17:58;;;;;;;22.15;12.25;;;;;;;-5.9;78.70996;95288;;;;
2021/01/12 01:18:58;;;;;;;22.15;12.25;;;;;;;-5.9;78.70996;95288;;;;
2021/01/12 01:19:59;;;;;;;22.15;12.25;;;;;;;-5.9;78.70996;95288;;;;
2021/01/12 01:21:00;;;;;;;22.15;12.25;;;;;;;-5.9;78.70996;95288;;;;
2021/01/12 01:22:00;;;;;;;22.15;12.25;;;;;;;-5.9;78.70996;95288;;;;
2021/01/12 01:23:01;;;;;;;22.15;12.25;;;;;;;-5.9;78.70996;95288;;;;
2021/01/12 01:24:02;;;;;;;22.15;12.25;;;;;;;-5.9;78.70996;95288;;;;
2021/01/12 01:25:03;;;;;;;22.15;12.25;;;;;;;-5.9;78.70996;95288;;;;
2021/01/12 01:26:04;;;;;;;22.15;12.25;;;;;;;-5.9;78.70996;95288;;;;
2021/01/12 01:27:05;;;;;;;20.85;10.75;;;;;;;-5.61;78.56055;95302.36;;;;
2021/01/12 01:28:05;;;;;;;20.85;10.75;;;;;;;-5.61;78.56055;95302.36;;;;
2021/01/12 01:29:06;;;;;;;20.85;10.75;;;;;;;-5.61;78.56055;95302.36;;;;
2021/01/12 01:30:06;;;;;;;20.85;10.75;;;;;;;-5.61;78.56055;95302.36;;;;
2021/01/12 01:31:08;;;;;;;20.85;10.75;;;;;;;-5.61;78.56055;95302.36;;;;
2021/01/12 01:32:08;;;;;;;20.85;10.75;;;;;;;-5.61;78.56055;95302.36;;;;
2021/01/12 01:33:10;;;;;;;20.85;10.75;;;;;;;-5.61;78.56055;95302.36;;;;
2021/01/12 01:34:10;;;;;;;20.85;10.75;;;;;;;-5.61;78.56055;95302.36;;;;
2021/01/12 01:35:11;;;;;;;20.85;10.75;;;;;;;-5.61;78.56055;95302.36;;;;
2021/01/12 01:36:11;;;;;;;20.85;10.75;;;;;;;-5.61;78.56055;95302.36;;;;
2021/01/12 01:37:12;;;;;;;20.35;10.9;;;;;;;-5.27;78.33203;95299.31;;;;
2021/01/12 01:38:16;;;;;;;20.35;10.9;;;;;;;-5.27;78.33203;95299.31;;;;
2021/01/12 01:39:16;;;;;;;20.35;10.9;;;;;;;-5.27;78.33203;95299.31;;;;
2021/01/12 01:40:17;;;;;;;20.35;10.9;;;;;;;-5.27;78.33203;95299.31;;;;
2021/01/12 01:41:20;;;;;;;20.35;10.9;;;;;;;-5.27;78.33203;95299.31;;;;
2021/01/12 01:42:21;;;;;;;20.35;10.9;;;;;;;-5.27;78.33203;95299.31;;;;
2021/01/12 01:43:21;;;;;;;20.35;10.9;;;;;;;-5.27;78.33203;95299.31;;;;
2021/01/12 01:44:21;;;;;;;20.35;10.9;;;;;;;-5.27;78.33203;95299.31;;;;
2021/01/12 01:45:23;;;;;;;20.35;10.9;;;;;;;-5.27;78.33203;95299.31;;;;
2021/01/12 01:46:24;;;;;;;20.35;10.9;;;;;;;-5.27;78.33203;95299.31;;;;
2021/01/12 01:47:25;;;;;;;20.35;10.9;;;;;;;-5.27;78.33203;95299.31;;;;
2021/01/12 01:48:26;;;;;;;17.45;9.599999;;;;;;;-5.03;78.31543;95297.88;;;;
2021/01/12 01:49:26;;;;;;;17.45;9.599999;;;;;;;-5.03;78.31543;95297.88;;;;
2021/01/12 01:50:27;;;;;;;17.45;9.599999;;;;;;;-5.03;78.31543;95297.88;;;;
2021/01/12 01:51:28;;;;;;;17.45;9.599999;;;;;;;-5.03;78.31543;95297.88;;;;
2021/01/12 01:52:29;;;;;;;17.45;9.599999;;;;;;;-5.03;78.31543;95297.88;;;;
2021/01/12 01:53:30;;;;;;;17.45;9.599999;;;;;;;-5.03;78.31543;95297.88;;;;
2021/01/12 01:54:33;;;;;;;17.45;9.599999;;;;;;;-5.03;78.31543;95297.88;;;;
2021/01/12 01:55:33;;;;;;;17.45;9.599999;;;;;;;-5.03;78.31543;95297.88;;;;
2021/01/12 01:56:33;;;;;;;17.45;9.599999;;;;;;;-5.03;78.31543;95297.88;;;;
2021/01/12 01:57:34;;;;;;;17.45;9.599999;;;;;;;-5.03;78.31543;95297.88;;;;
2021/01/12 01:58:35;;;;;;;17.6;9.45;;;;;;;-4.78;78.1875;95303.94;;;;
2021/01/12 01:59:38;;;;;;;17.6;9.45;;;;;;;-4.78;78.1875;95303.94;;;;
2021/01/12 02:00:38;;;;;;;17.6;9.45;;;;;;;-4.78;78.1875;95303.94;;;;
2021/01/12 02:01:39;;;;;;;17.6;9.45;;;;;;;-4.78;78.1875;95303.94;;;;
2021/01/12 02:02:39;;;;;;;17.6;9.45;;;;;;;-4.78;78.1875;95303.94;;;;
2021/01/12 02:03:51;;;;;;;17.6;9.45;;;;;;;-4.78;78.1875;95303.94;;;;
2021/01/12 02:05:02;;;;;;;17.6;9.45;;;;;;;-4.78;78.1875;95303.94;;;;
2021/01/12 02:06:09;;;;;;;17.6;9.45;;;;;;;-4.78;78.1875;95303.94;;;;
2021/01/12 02:07:16;;;;;;;17.6;9.45;;;;;;;-4.78;78.1875;95303.94;;;;
2021/01/12 02:08:17;;;;;;;17.6;9.45;;;;;;;-4.78;78.1875;95303.94;;;;
2021/01/12 02:09:22;;;;;;;15.85;9.049999;;;;;;;-4.52;77.9873;95299.67;;;;
2021/01/12 02:10:29;;;;;;;15.85;9.049999;;;;;;;-4.52;77.9873;95299.67;;;;
2021/01/12 02:11:35;;;;;;;15.85;9.049999;;;;;;;-4.52;77.9873;95299.67;;;;
2021/01/12 02:12:40;;;;;;;15.85;9.049999;;;;;;;-4.52;77.9873;95299.67;;;;
2021/01/12 02:13:46;;;;;;;15.85;9.049999;;;;;;;-4.52;77.9873;95299.67;;;;
2021/01/12 02:14:56;;;;;;;15.85;9.049999;;;;;;;-4.52;77.9873;95299.67;;;;
2021/01/12 02:15:56;;;;;;;15.85;9.049999;;;;;;;-4.52;77.9873;95299.67;;;;
2021/01/12 02:16:59;;;;;;;15.85;9.049999;;;;;;;-4.52;77.9873;95299.67;;;;
2021/01/12 02:18:01;;;;;;;15.85;9.049999;;;;;;;-4.52;77.9873;95299.67;;;;
2021/01/12 02:19:02;;;;;;;15.85;9.049999;;;;;;;-4.52;77.9873;95299.67;;;;
2021/01/12 02:20:05;;;;;;;18.85;9.450001;;;;;;;-4.33;77.78613;95288.14;;;;
2021/01/12 02:21:07;;;;;;;18.85;9.450001;;;;;;;-4.33;77.78613;95288.14;;;;
2021/01/12 02:22:08;;;;;;;18.85;9.450001;;;;;;;-4.33;77.78613;95288.14;;;;
2021/01/12 02:23:17;;;;;;;18.85;9.450001;;;;;;;-4.33;77.78613;95288.14;;;;
2021/01/12 02:24:23;;;;;;;18.85;9.450001;;;;;;;-4.33;77.78613;95288.14;;;;
2021/01/12 02:25:23;;;;;;;18.85;9.450001;;;;;;;-4.33;77.78613;95288.14;;;;
2021/01/12 02:26:25;;;;;;;18.85;9.450001;;;;;;;-4.33;77.78613;95288.14;;;;
2021/01/12 02:27:26;;;;;;;18.85;9.450001;;;;;;;-4.33;77.78613;95288.14;;;;
2021/01/12 02:28:26;;;;;;;18.85;9.450001;;;;;;;-4.33;77.78613;95288.14;;;;
2021/01/12 02:29:27;;;;;;;18.85;9.450001;;;;;;;-4.33;77.78613;95288.14;;;;
2021/01/12 02:30:27;;;;;;;16.65;9.2;;;;;;;-4.17;77.76465;95259.77;;;;
2021/01/12 02:31:28;;;;;;;16.65;9.2;;;;;;;-4.17;77.76465;95259.77;;;;
2021/01/12 02:32:29;;;;;;;16.65;9.2;;;;;;;-4.17;77.76465;95259.77;;;;
2021/01/12 02:33:29;;;;;;;16.65;9.2;;;;;;;-4.17;77.76465;95259.77;;;;
2021/01/12 02:34:31;;;;;;;16.65;9.2;;;;;;;-4.17;77.76465;95259.77;;;;
2021/01/12 02:35:32;;;;;;;16.65;9.2;;;;;;;-4.17;77.76465;95259.77;;;;
2021/01/12 02:36:36;;;;;;;16.65;9.2;;;;;;;-4.17;77.76465;95259.77;;;;
2021/01/12 02:37:37;;;;;;;16.65;9.2;;;;;;;-4.17;77.76465;95259.77;;;;
2021/01/12 02:38:38;;;;;;;16.65;9.2;;;;;;;-4.17;77.76465;95259.77;;;;
2021/01/12 02:39:39;;;;;;;16.65;9.2;;;;;;;-4.17;77.76465;95259.77;;;;
2021/01/12 02:40:41;;;;;;;16.65;9.2;;;;;;;-4.17;77.76465;95259.77;;;;
2021/01/12 02:41:41;;;;;;;15.9;8.799999;;;;;;;-4.02;77.63574;95234.63;;;;
2021/01/12 02:42:42;;;;;;;15.9;8.799999;;;;;;;-4.02;77.63574;95234.63;;;;
2021/01/12 02:43:43;;;;;;;15.9;8.799999;;;;;;;-4.02;77.63574;95234.63;;;;
2021/01/12 02:44:45;;;;;;;15.9;8.799999;;;;;;;-4.02;77.63574;95234.63;;;;
2021/01/12 02:45:47;;;;;;;15.9;8.799999;;;;;;;-4.02;77.63574;95234.63;;;;
2021/01/12 02:46:48;;;;;;;15.9;8.799999;;;;;;;-4.02;77.63574;95234.63;;;;
2021/01/12 02:47:49;;;;;;;15.9;8.799999;;;;;;;-4.02;77.63574;95234.63;;;;
2021/01/12 02:48:50;;;;;;;15.9;8.799999;;;;;;;-4.02;77.63574;95234.63;;;;
2021/01/12 02:49:51;;;;;;;15.9;8.799999;;;;;;;-4.02;77.63574;95234.63;;;;
2021/01/12 02:50:51;;;;;;;15.9;8.799999;;;;;;;-4.02;77.63574;95234.63;;;;
2021/01/12 02:51:52;;;;;;;15.45;8.450002;;;;;;;-3.93;77.57031;95234.16;;;;
2021/01/12 02:52:52;;;;;;;15.45;8.450002;;;;;;;-3.93;77.57031;95234.16;;;;
2021/01/12 02:53:53;;;;;;;15.45;8.450002;;;;;;;-3.93;77.57031;95234.16;;;;
2021/01/12 02:54:53;;;;;;;15.45;8.450002;;;;;;;-3.93;77.57031;95234.16;;;;
2021/01/12 02:55:54;;;;;;;15.45;8.450002;;;;;;;-3.93;77.57031;95234.16;;;;
2021/01/12 02:56:54;;;;;;;15.45;8.450002;;;;;;;-3.93;77.57031;95234.16;;;;
2021/01/12 02:57:55;;;;;;;15.45;8.450002;;;;;;;-3.93;77.57031;95234.16;;;;
2021/01/12 02:58:55;;;;;;;15.45;8.450002;;;;;;;-3.93;77.57031;95234.16;;;;
2021/01/12 02:59:56;;;;;;;15.45;8.450002;;;;;;;-3.93;77.57031;95234.16;;;;
2021/01/12 03:00:56;;;;;;;15.45;8.450002;;;;;;;-3.93;77.57031;95234.16;;;;
2021/01/12 03:01:57;;;;;;;15.45;8.450002;;;;;;;-3.93;77.57031;95234.16;;;;
2021/01/12 03:02:57;;;;;;;19.95;9.4;;;;;;;-3.93;77.61133;95234.58;;;;
2021/01/12 03:03:58;;;;;;;19.95;9.4;;;;;;;-3.93;77.61133;95234.58;;;;
2021/01/12 03:04:58;;;;;;;19.95;9.4;;;;;;;-3.93;77.61133;95234.58;;;;
2021/01/12 03:05:59;;;;;;;19.95;9.4;;;;;;;-3.93;77.61133;95234.58;;;;
2021/01/12 03:06:59;;;;;;;19.95;9.4;;;;;;;-3.93;77.61133;95234.58;;;;
2021/01/12 03:08:00;;;;;;;19.95;9.4;;;;;;;-3.93;77.61133;95234.58;;;;
2021/01/12 03:09:00;;;;;;;19.95;9.4;;;;;;;-3.93;77.61133;95234.58;;;;
2021/01/12 03:10:01;;;;;;;19.95;9.4;;;;;;;-3.93;77.61133;95234.58;;;;
2021/01/12 03:11:04;;;;;;;19.95;9.4;;;;;;;-3.93;77.61133;95234.58;;;;
2021/01/12 03:12:04;;;;;;;19.95;9.4;;;;;;;-3.93;77.61133;95234.58;;;;
2021/01/12 03:13:05;;;;;;;14.55;8.2;;;;;;;-3.97;77.69727;95226.62;;;;
2021/01/12 03:14:06;;;;;;;14.55;8.2;;;;;;;-3.97;77.69727;95226.62;;;;
2021/01/12 03:15:08;;;;;;;14.55;8.2;;;;;;;-3.97;77.69727;95226.62;;;;
2021/01/12 03:16:10;;;;;;;14.55;8.2;;;;;;;-3.97;77.69727;95226.62;;;;
2021/01/12 03:17:11;;;;;;;14.55;8.2;;;;;;;-3.97;77.69727;95226.62;;;;
2021/01/12 03:18:12;;;;;;;14.55;8.2;;;;;;;-3.97;77.69727;95226.62;;;;
2021/01/12 03:19:13;;;;;;;14.55;8.2;;;;;;;-3.97;77.69727;95226.62;;;;
2021/01/12 03:20:13;;;;;;;14.55;8.2;;;;;;;-3.97;77.69727;95226.62;;;;
2021/01/12 03:21:14;;;;;;;14.55;8.2;;;;;;;-3.97;77.69727;95226.62;;;;
2021/01/12 03:22:15;;;;;;;14.55;8.2;;;;;;;-3.97;77.69727;95226.62;;;;
2021/01/12 03:23:16;;;;;;;14.55;8.2;;;;;;;-3.97;77.69727;95226.62;;;;
2021/01/12 03:24:16;;;;;;;16.25;9.35;;;;;;;-4;77.8457;95201.05;;;;
2021/01/12 03:25:20;;;;;;;16.25;9.35;;;;;;;-4;77.8457;95201.05;;;;
2021/01/12 03:26:20;;;;;;;16.25;9.35;;;;;;;-4;77.8457;95201.05;;;;
2021/01/12 03:27:21;;;;;;;16.25;9.35;;;;;;;-4;77.8457;95201.05;;;;
2021/01/12 03:28:22;;;;;;;16.25;9.35;;;;;;;-4;77.8457;95201.05;;;;
2021/01/12 03:29:22;;;;;;;16.25;9.35;;;;;;;-4;77.8457;95201.05;;;;
2021/01/12 03:30:23;;;;;;;16.25;9.35;;;;;;;-4;77.8457;95201.05;;;;
2021/01/12 03:31:24;;;;;;;16.25;9.35;;;;;;;-4;77.8457;95201.05;;;;
2021/01/12 03:32:24;;;;;;;16.25;9.35;;;;;;;-4;77.8457;95201.05;;;;
2021/01/12 03:33:25;;;;;;;16.25;9.35;;;;;;;-4;77.8457;95201.05;;;;
2021/01/12 03:34:25;;;;;;;19.35;9.650002;;;;;;;-4.04;77.94141;95178.59;;;;
2021/01/12 03:35:26;;;;;;;19.35;9.650002;;;;;;;-4.04;77.94141;95178.59;;;;
2021/01/12 03:36:27;;;;;;;19.35;9.650002;;;;;;;-4.04;77.94141;95178.59;;;;
2021/01/12 03:37:28;;;;;;;19.35;9.650002;;;;;;;-4.04;77.94141;95178.59;;;;
2021/01/12 03:38:28;;;;;;;19.35;9.650002;;;;;;;-4.04;77.94141;95178.59;;;;
2021/01/12 03:39:28;;;;;;;19.35;9.650002;;;;;;;-4.04;77.94141;95178.59;;;;
2021/01/12 03:40:29;;;;;;;19.35;9.650002;;;;;;;-4.04;77.94141;95178.59;;;;
2021/01/12 03:41:31;;;;;;;19.35;9.650002;;;;;;;-4.04;77.94141;95178.59;;;;
2021/01/12 03:42:32;;;;;;;19.35;9.650002;;;;;;;-4.04;77.94141;95178.59;;;;
2021/01/12 03:43:33;;;;;;;19.35;9.650002;;;;;;;-4.04;77.94141;95178.59;;;;
2021/01/12 03:44:34;;;;;;;19.35;9.650002;;;;;;;-4.04;77.94141;95178.59;;;;
2021/01/12 03:45:34;;;;;;;17.85;9.900001;;;;;;;-4.01;77.90723;95179.12;;;;
2021/01/12 03:46:35;;;;;;;17.85;9.900001;;;;;;;-4.01;77.90723;95179.12;;;;
2021/01/12 03:47:35;;;;;;;17.85;9.900001;;;;;;;-4.01;77.90723;95179.12;;;;
2021/01/12 03:48:36;;;;;;;17.85;9.900001;;;;;;;-4.01;77.90723;95179.12;;;;
2021/01/12 03:49:36;;;;;;;17.85;9.900001;;;;;;;-4.01;77.90723;95179.12;;;;
2021/01/12 03:50:37;;;;;;;17.85;9.900001;;;;;;;-4.01;77.90723;95179.12;;;;
2021/01/12 03:51:37;;;;;;;17.85;9.900001;;;;;;;-4.01;77.90723;95179.12;;;;
2021/01/12 03:52:38;;;;;;;17.85;9.900001;;;;;;;-4.01;77.90723;95179.12;;;;
2021/01/12 03:53:38;;;;;;;17.85;9.900001;;;;;;;-4.01;77.90723;95179.12;;;;
2021/01/12 03:54:39;;;;;;;17.85;9.900001;;;;;;;-4.01;77.90723;95179.12;;;;
2021/01/12 03:55:39;;;;;;;17.85;9.900001;;;;;;;-4.01;77.90723;95179.12;;;;
2021/01/12 03:56:40;;;;;;;17.2;10.2;;;;;;;-3.95;77.9707;95163.12;;;;
2021/01/12 03:57:41;;;;;;;17.2;10.2;;;;;;;-3.95;77.9707;95163.12;;;;
2021/01/12 03:58:41;;;;;;;17.2;10.2;;;;;;;-3.95;77.9707;95163.12;;;;
2021/01/12 03:59:42;;;;;;;17.2;10.2;;;;;;;-3.95;77.9707;95163.12;;;;
2021/01/12 04:00:43;;;;;;;17.2;10.2;;;;;;;-3.95;77.9707;95163.12;;;;
2021/01/12 04:01:44;;;;;;;17.2;10.2;;;;;;;-3.95;77.9707;95163.12;;;;
2021/01/12 04:02:44;;;;;;;17.2;10.2;;;;;;;-3.95;77.9707;95163.12;;;;
2021/01/12 04:03:45;;;;;;;17.2;10.2;;;;;;;-3.95;77.9707;95163.12;;;;
2021/01/12 04:04:45;;;;;;;17.2;10.2;;;;;;;-3.95;77.9707;95163.12;;;;
2021/01/12 04:05:46;;;;;;;17.2;10.2;;;;;;;-3.95;77.9707;95163.12;;;;
2021/01/12 04:06:47;;;;;;;18.85;9.200001;;;;;;;-3.8;77.75977;95153.29;;;;
2021/01/12 04:07:47;;;;;;;18.85;9.200001;;;;;;;-3.8;77.75977;95153.29;;;;
2021/01/12 04:08:48;;;;;;;18.85;9.200001;;;;;;;-3.8;77.75977;95153.29;;;;
2021/01/12 04:09:48;;;;;;;18.85;9.200001;;;;;;;-3.8;77.75977;95153.29;;;;
2021/01/12 04:10:49;;;;;;;18.85;9.200001;;;;;;;-3.8;77.75977;95153.29;;;;
2021/01/12 04:11:50;;;;;;;18.85;9.200001;;;;;;;-3.8;77.75977;95153.29;;;;
2021/01/12 04:12:50;;;;;;;18.85;9.200001;;;;;;;-3.8;77.75977;95153.29;;;;
2021/01/12 04:13:51;;;;;;;18.85;9.200001;;;;;;;-3.8;77.75977;95153.29;;;;
2021/01/12 04:14:51;;;;;;;18.85;9.200001;;;;;;;-3.8;77.75977;95153.29;;;;
2021/01/12 04:15:52;;;;;;;18.85;9.200001;;;;;;;-3.8;77.75977;95153.29;;;;
2021/01/12 04:16:52;;;;;;;18.85;9.200001;;;;;;;-3.8;77.75977;95153.29;;;;
2021/01/12 04:17:53;;;;;;;19.15;9.65;;;;;;;-3.68;77.56543;95156.92;;;;
2021/01/12 04:18:54;;;;;;;19.15;9.65;;;;;;;-3.68;77.56543;95156.92;;;;
2021/01/12 04:19:54;;;;;;;19.15;9.65;;;;;;;-3.68;77.56543;95156.92;;;;
2021/01/12 04:20:55;;;;;;;19.15;9.65;;;;;;;-3.68;77.56543;95156.92;;;;
2021/01/12 04:21:55;;;;;;;19.15;9.65;;;;;;;-3.68;77.56543;95156.92;;;;
2021/01/12 04:22:55;;;;;;;19.15;9.65;;;;;;;-3.68;77.56543;95156.92;;;;
2021/01/12 04:23:56;;;;;;;19.15;9.65;;;;;;;-3.68;77.56543;95156.92;;;;
2021/01/12 04:24:56;;;;;;;19.15;9.65;;;;;;;-3.68;77.56543;95156.92;;;;
2021/01/12 04:25:57;;;;;;;19.15;9.65;;;;;;;-3.68;77.56543;95156.92;;;;
2021/01/12 04:26:58;;;;;;;19.15;9.65;;;;;;;-3.68;77.56543;95156.92;;;;
2021/01/12 04:27:58;;;;;;;17.4;9.35;;;;;;;-3.55;77.36035;95130.07;;;;
2021/01/12 04:28:59;;;;;;;17.4;9.35;;;;;;;-3.55;77.36035;95130.07;;;;
2021/01/12 04:29:59;;;;;;;17.4;9.35;;;;;;;-3.55;77.36035;95130.07;;;;
2021/01/12 04:31:00;;;;;;;17.4;9.35;;;;;;;-3.55;77.36035;95130.07;;;;
2021/01/12 04:32:00;;;;;;;17.4;9.35;;;;;;;-3.55;77.36035;95130.07;;;;
2021/01/12 04:33:01;;;;;;;17.4;9.35;;;;;;;-3.55;77.36035;95130.07;;;;
2021/01/12 04:34:01;;;;;;;17.4;9.35;;;;;;;-3.55;77.36035;95130.07;;;;
2021/01/12 04:35:02;;;;;;;17.4;9.35;;;;;;;-3.55;77.36035;95130.07;;;;
2021/01/12 04:36:04;;;;;;;17.4;9.35;;;;;;;-3.55;77.36035;95130.07;;;;
2021/01/12 04:37:05;;;;;;;17.4;9.35;;;;;;;-3.55;77.36035;95130.07;;;;
2021/01/12 04:38:06;;;;;;;17.4;9.35;;;;;;;-3.55;77.36035;95130.07;;;;
2021/01/12 04:39:06;;;;;;;12;7.149999;;;;;;;-3.4;77.23438;95113.98;;;;
2021/01/12 04:40:08;;;;;;;12;7.149999;;;;;;;-3.4;77.23438;95113.98;;;;
2021/01/12 04:41:09;;;;;;;12;7.149999;;;;;;;-3.4;77.23438;95113.98;;;;
2021/01/12 04:42:09;;;;;;;12;7.149999;;;;;;;-3.4;77.23438;95113.98;;;;
2021/01/12 04:43:10;;;;;;;12;7.149999;;;;;;;-3.4;77.23438;95113.98;;;;
2021/01/12 04:44:11;;;;;;;12;7.149999;;;;;;;-3.4;77.23438;95113.98;;;;
2021/01/12 04:45:12;;;;;;;12;7.149999;;;;;;;-3.4;77.23438;95113.98;;;;
2021/01/12 04:46:13;;;;;;;12;7.149999;;;;;;;-3.4;77.23438;95113.98;;;;
2021/01/12 04:47:13;;;;;;;12;7.149999;;;;;;;-3.4;77.23438;95113.98;;;;
2021/01/12 04:48:14;;;;;;;12;7.149999;;;;;;;-3.4;77.23438;95113.98;;;;
2021/01/12 04:49:14;;;;;;;16.2;8.300001;;;;;;;-3.19;77.10645;95090.29;;;;
2021/01/12 04:50:15;;;;;;;16.2;8.300001;;;;;;;-3.19;77.10645;95090.29;;;;
2021/01/12 04:51:16;;;;;;;16.2;8.300001;;;;;;;-3.19;77.10645;95090.29;;;;
2021/01/12 04:52:16;;;;;;;16.2;8.300001;;;;;;;-3.19;77.10645;95090.29;;;;
2021/01/12 04:53:17;;;;;;;16.2;8.300001;;;;;;;-3.19;77.10645;95090.29;;;;
2021/01/12 04:54:17;;;;;;;16.2;8.300001;;;;;;;-3.19;77.10645;95090.29;;;;
2021/01/12 04:55:18;;;;;;;16.2;8.300001;;;;;;;-3.19;77.10645;95090.29;;;;
2021/01/12 04:56:20;;;;;;;16.2;8.300001;;;;;;;-3.19;77.10645;95090.29;;;;
2021/01/12 04:57:22;;;;;;;16.2;8.300001;;;;;;;-3.19;77.10645;95090.29;;;;
2021/01/12 04:58:22;;;;;;;16.2;8.300001;;;;;;;-3.19;77.10645;95090.29;;;;
2021/01/12 04:59:23;;;;;;;16.2;8.300001;;;;;;;-3.19;77.10645;95090.29;;;;
2021/01/12 05:00:29;;;;;;;15.25;8.450001;;;;;;;-3.14;76.89551;95095.98;;;;
2021/01/12 05:01:30;;;;;;;15.25;8.450001;;;;;;;-3.14;76.89551;95095.98;;;;
2021/01/12 05:02:31;;;;;;;15.25;8.450001;;;;;;;-3.14;76.89551;95095.98;;;;
2021/01/12 05:03:31;;;;;;;15.25;8.450001;;;;;;;-3.14;76.89551;95095.98;;;;
2021/01/12 05:04:32;;;;;;;15.25;8.450001;;;;;;;-3.14;76.89551;95095.98;;;;
2021/01/12 05:05:33;;;;;;;15.25;8.450001;;;;;;;-3.14;76.89551;95095.98;;;;
2021/01/12 05:06:35;;;;;;;15.25;8.450001;;;;;;;-3.14;76.89551;95095.98;;;;
2021/01/12 05:07:38;;;;;;;15.25;8.450001;;;;;;;-3.14;76.89551;95095.98;;;;
2021/01/12 05:08:39;;;;;;;15.25;8.450001;;;;;;;-3.14;76.89551;95095.98;;;;
2021/01/12 05:09:41;;;;;;;15.25;8.450001;;;;;;;-3.14;76.89551;95095.98;;;;
2021/01/12 05:10:43;;;;;;;15.5;8.15;;;;;;;-3.24;76.93262;95088.62;;;;
2021/01/12 05:11:50;;;;;;;15.5;8.15;;;;;;;-3.24;76.93262;95088.62;;;;
2021/01/12 05:12:53;;;;;;;15.5;8.15;;;;;;;-3.24;76.93262;95088.62;;;;
2021/01/12 05:13:57;;;;;;;15.5;8.15;;;;;;;-3.24;76.93262;95088.62;;;;
2021/01/12 05:15:03;;;;;;;15.5;8.15;;;;;;;-3.24;76.93262;95088.62;;;;
2021/01/12 05:16:05;;;;;;;15.5;8.15;;;;;;;-3.24;76.93262;95088.62;;;;
2021/01/12 05:17:07;;;;;;;15.5;8.15;;;;;;;-3.24;76.93262;95088.62;;;;
2021/01/12 05:18:15;;;;;;;15.5;8.15;;;;;;;-3.24;76.93262;95088.62;;;;
2021/01/12 05:19:19;;;;;;;15.5;8.15;;;;;;;-3.24;76.93262;95088.62;;;;
2021/01/12 05:20:21;;;;;;;15.5;8.15;;;;;;;-3.24;76.93262;95088.62;;;;
2021/01/12 05:21:24;;;;;;;20.15;9.700001;;;;;;;-3.31;77.01172;95074.37;;;;
2021/01/12 05:22:25;;;;;;;20.15;9.700001;;;;;;;-3.31;77.01172;95074.37;;;;
2021/01/12 05:23:29;;;;;;;20.15;9.700001;;;;;;;-3.31;77.01172;95074.37;;;;
2021/01/12 05:24:32;;;;;;;20.15;9.700001;;;;;;;-3.31;77.01172;95074.37;;;;
2021/01/12 05:25:39;;;;;;;20.15;9.700001;;;;;;;-3.31;77.01172;95074.37;;;;
2021/01/12 05:26:41;;;;;;;20.15;9.700001;;;;;;;-3.31;77.01172;95074.37;;;;
2021/01/12 05:27:41;;;;;;;20.15;9.700001;;;;;;;-3.31;77.01172;95074.37;;;;
2021/01/12 05:28:42;;;;;;;20.15;9.700001;;;;;;;-3.31;77.01172;95074.37;;;;
2021/01/12 05:29:42;;;;;;;20.15;9.700001;;;;;;;-3.31;77.01172;95074.37;;;;
2021/01/12 05:30:43;;;;;;;20.15;9.700001;;;;;;;-3.31;77.01172;95074.37;;;;
2021/01/12 05:31:46;;;;;;;15.45;8.750001;;;;;;;-3.36;77.04297;95076.23;;;;
2021/01/12 05:32:46;;;;;;;15.45;8.750001;;;;;;;-3.36;77.04297;95076.23;;;;
2021/01/12 05:33:51;;;;;;;15.45;8.750001;;;;;;;-3.36;77.04297;95076.23;;;;
2021/01/12 05:34:51;;;;;;;15.45;8.750001;;;;;;;-3.36;77.04297;95076.23;;;;
2021/01/12 05:35:54;;;;;;;15.45;8.750001;;;;;;;-3.36;77.04297;95076.23;;;;
2021/01/12 05:36:56;;;;;;;15.45;8.750001;;;;;;;-3.36;77.04297;95076.23;;;;
2021/01/12 05:37:57;;;;;;;15.45;8.750001;;;;;;;-3.36;77.04297;95076.23;;;;